Time;durP1;ratioP1;P1;durP2;ratioP2;P2;SDS_P1;SDS_P2;PMS_P1;PMS_P2;Temp;Humidity;BMP_temperature;BMP_pressure;BME280_temperature;BME280_humidity;BME280_pressure;Samples;Min_cycle;Max_cycle;Signal;HPM_P1;HPM_P2
2021/05/25 00:00:25;;;;;;;1.25;0.70;;;;;;;19.37;47.66;100760.47;5033642;28;20051;-58
2021/05/25 00:02:52;;;;;;;3.40;0.80;;;;;;;19.39;47.70;100765.59;5034578;28;20025;-61
2021/05/25 00:05:26;;;;;;;1.92;0.80;;;;;;;19.36;47.75;100769.38;5034141;28;20021;-59
2021/05/25 00:07:51;;;;;;;;;;;;;;;19.36;47.83;100769.38;5033968;28;20021;-59
2021/05/25 00:10:21;;;;;;;2.22;0.75;;;;;;;19.37;47.52;100767.56;5034218;28;20387;-58
2021/05/25 00:12:47;;;;;;;2.08;0.80;;;;;;;19.34;47.71;100773.09;5033555;28;20022;-58
2021/05/25 00:15:16;;;;;;;2.00;0.80;;;;;;;19.33;47.75;100772.28;5034011;28;20021;-58
2021/05/25 00:17:41;;;;;;;1.75;0.73;;;;;;;19.30;47.62;100767.25;5034219;28;20025;-58
2021/05/25 00:20:09;;;;;;;1.65;0.80;;;;;;;19.29;47.63;100767.41;5032828;28;20048;-58
2021/05/25 00:22:34;;;;;;;2.00;0.80;;;;;;;19.31;47.36;100773.38;5033940;28;20112;-58
2021/05/25 00:25:03;;;;;;;1.38;0.73;;;;;;;19.29;47.67;100770.88;5034150;28;20430;-58
2021/05/25 00:27:28;;;;;;;1.25;0.60;;;;;;;19.26;47.32;100765.03;5033317;28;20045;-59
2021/05/25 00:29:53;;;;;;;1.33;0.63;;;;;;;19.28;47.22;100771.00;5033751;28;20122;-58
2021/05/25 00:32:19;;;;;;;1.93;0.80;;;;;;;19.28;47.22;100776.28;5033629;28;20041;-58
2021/05/25 00:34:47;;;;;;;2.10;0.80;;;;;;;19.27;47.44;100774.63;5033032;28;20274;-58
2021/05/25 00:37:12;;;;;;;2.45;1.00;;;;;;;19.25;47.35;100777.41;5032925;28;20445;-58
2021/05/25 00:39:38;;;;;;;1.88;0.90;;;;;;;19.21;47.30;100765.41;5033206;28;20044;-58
2021/05/25 00:42:05;;;;;;;1.52;0.63;;;;;;;19.25;47.01;100771.25;5032178;28;20065;-58
2021/05/25 00:44:31;;;;;;;2.35;0.90;;;;;;;19.21;47.13;100765.41;5033696;28;20025;-59
2021/05/25 00:46:56;;;;;;;2.35;0.82;;;;;;;19.23;47.27;100771.41;5033451;28;20357;-58
2021/05/25 00:49:22;;;;;;;1.90;0.82;;;;;;;19.19;46.95;100776.13;5032587;28;20032;-59
2021/05/25 00:51:47;;;;;;;2.03;0.90;;;;;;;19.20;47.34;100769.03;5033477;28;20028;-58
2021/05/25 00:54:13;;;;;;;2.03;0.80;;;;;;;19.21;47.16;100781.28;5033257;28;20389;-58
2021/05/25 00:56:38;;;;;;;1.85;0.80;;;;;;;19.19;47.11;100778.75;5032823;28;20026;-59
2021/05/25 00:59:03;;;;;;;2.40;0.80;;;;;;;19.18;46.96;100773.63;5032476;28;20045;-58
2021/05/25 01:01:29;;;;;;;1.88;0.90;;;;;;;19.20;46.76;100776.94;5033327;28;20484;-58
2021/05/25 01:03:55;;;;;;;1.77;0.80;;;;;;;19.19;47.14;100781.41;5032435;28;20021;-58
2021/05/25 01:06:21;;;;;;;2.15;0.90;;;;;;;19.16;46.83;100772.91;5032662;28;20022;-58
2021/05/25 01:08:49;;;;;;;2.38;1.05;;;;;;;19.16;46.76;100776.38;5033339;28;20036;-58
2021/05/25 01:11:18;;;;;;;2.17;0.88;;;;;;;19.16;46.77;100776.38;5032340;28;20026;-57
2021/05/25 01:13:49;;;;;;;1.67;0.70;;;;;;;19.14;46.75;100773.03;5032902;28;20350;-58
2021/05/25 01:16:15;;;;;;;1.95;0.85;;;;;;;19.14;46.58;100780.97;5031999;28;20543;-58
2021/05/25 01:18:41;;;;;;;1.67;0.70;;;;;;;19.12;46.79;100768.84;5032823;28;20051;-58
2021/05/25 01:21:08;;;;;;;4.13;1.00;;;;;;;19.14;46.70;100777.50;5032396;28;20449;-58
2021/05/25 01:23:35;;;;;;;1.83;0.90;;;;;;;19.10;46.65;100773.44;5032428;28;20076;-59
2021/05/25 01:26:02;;;;;;;2.42;0.80;;;;;;;19.11;46.43;100780.41;5032774;28;20031;-59
2021/05/25 01:28:28;;;;;;;3.30;0.80;;;;;;;19.10;46.41;100776.91;5032664;28;20044;-58
2021/05/25 01:30:55;;;;;;;2.17;0.90;;;;;;;19.10;46.66;100782.19;5032078;28;20021;-58
2021/05/25 01:33:31;;;;;;;1.88;0.80;;;;;;;19.10;46.33;100784.84;5032416;28;20025;-59
2021/05/25 01:35:58;;;;;;;1.33;0.68;;;;;;;19.08;46.64;100780.69;5032904;28;20029;-58
2021/05/25 01:38:25;;;;;;;1.83;0.77;;;;;;;19.07;46.57;100793.03;5031682;28;20025;-58
2021/05/25 01:40:53;;;;;;;2.10;0.82;;;;;;;19.06;46.55;100785.22;5032598;28;20021;-58
2021/05/25 01:43:18;;;;;;;2.45;0.80;;;;;;;19.05;46.45;100783.56;5032412;28;20377;-59
2021/05/25 01:45:47;;;;;;;1.90;0.90;;;;;;;19.06;46.39;100801.06;5031926;28;20519;-59
2021/05/25 01:48:12;;;;;;;2.30;0.80;;;;;;;18.99;46.60;100780.50;5032267;28;20052;-59
2021/05/25 01:50:43;;;;;;;1.95;0.82;;;;;;;19.03;46.16;100795.09;5032278;28;20080;-59
2021/05/25 01:53:29;;;;;;;2.13;0.80;;;;;;;19.02;46.29;100789.94;5031412;28;20030;-59
2021/05/25 01:55:57;;;;;;;2.30;0.80;;;;;;;18.97;46.29;100787.69;5032520;28;20033;-59
2021/05/25 01:58:25;;;;;;;1.67;0.77;;;;;;;19.02;46.37;100796.06;5031131;28;20465;-58
2021/05/25 02:00:54;;;;;;;2.15;0.93;;;;;;;19.01;46.16;100797.03;5032645;28;20036;-58
2021/05/25 02:03:20;;;;;;;2.70;0.93;;;;;;;19.01;46.02;100793.56;5031900;28;20522;-58
2021/05/25 02:05:46;;;;;;;2.17;0.90;;;;;;;18.99;46.19;100793.72;5031746;28;20041;-57
2021/05/25 02:08:13;;;;;;;2.85;0.90;;;;;;;19.00;46.36;100797.19;5031993;28;20093;-58
2021/05/25 02:10:40;;;;;;;2.47;0.80;;;;;;;18.99;46.31;100798.13;5031940;28;20051;-58
2021/05/25 02:13:14;;;;;;;2.03;0.80;;;;;;;18.96;46.31;100786.03;5030969;28;20108;-58
2021/05/25 02:15:41;;;;;;;2.05;0.85;;;;;;;18.98;46.13;100797.31;5031983;28;20369;-58
2021/05/25 02:18:10;;;;;;;1.80;0.85;;;;;;;18.94;46.21;100787.13;5031674;28;20032;-58
2021/05/25 02:20:37;;;;;;;2.15;1.25;;;;;;;18.98;45.92;100799.13;5031474;28;20025;-58
2021/05/25 02:23:05;;;;;;;1.58;0.70;;;;;;;18.93;45.96;100786.31;5031596;28;20159;-58
2021/05/25 02:25:34;;;;;;;1.85;0.80;;;;;;;18.94;46.14;100795.06;5031952;28;20026;-59
2021/05/25 02:28:00;;;;;;;1.25;0.75;;;;;;;18.95;46.07;100791.47;5031284;28;20449;-59
2021/05/25 02:30:28;;;;;;;2.38;0.80;;;;;;;18.95;46.17;100799.38;5031557;28;20048;-59
2021/05/25 02:32:54;;;;;;;2.10;0.80;;;;;;;18.92;45.94;100797.00;5032024;28;20025;-58
2021/05/25 02:35:19;;;;;;;2.28;0.80;;;;;;;18.93;46.22;100801.28;5030869;28;20022;-58
2021/05/25 02:37:45;;;;;;;2.60;0.70;;;;;;;18.93;46.24;100810.06;5031751;28;20443;-58
2021/05/25 02:40:11;;;;;;;2.40;0.80;;;;;;;18.91;46.01;100804.06;5031515;28;20287;-58
2021/05/25 02:42:36;;;;;;;2.13;0.70;;;;;;;18.91;46.10;100801.41;5031116;28;20279;-57
2021/05/25 02:45:03;;;;;;;1.83;0.70;;;;;;;18.90;46.05;100798.91;5031145;28;20041;-58
2021/05/25 02:47:28;;;;;;;2.13;0.80;;;;;;;18.91;46.15;100809.34;5030974;28;20036;-59
2021/05/25 02:49:54;;;;;;;2.55;0.80;;;;;;;18.90;46.25;100806.84;5031712;28;20026;-58
2021/05/25 02:52:20;;;;;;;1.75;0.70;;;;;;;18.90;46.26;100805.06;5031386;28;20026;-58
2021/05/25 02:54:45;;;;;;;2.20;0.80;;;;;;;18.89;46.08;100806.00;5030722;28;20457;-58
2021/05/25 02:57:10;;;;;;;1.55;0.70;;;;;;;18.89;46.18;100799.91;5031429;28;20037;-58
2021/05/25 02:59:41;;;;;;;2.00;0.80;;;;;;;18.88;46.16;100800.84;5031663;28;20029;-59
2021/05/25 03:02:07;;;;;;;2.65;0.85;;;;;;;18.88;46.18;100811.41;5032811;28;20075;-59
2021/05/25 03:04:38;;;;;;;2.13;0.80;;;;;;;18.88;46.13;100803.50;5035451;28;20021;-58
2021/05/25 03:07:04;;;;;;;2.15;0.80;;;;;;;18.87;46.03;100809.72;5035070;28;20036;-58
2021/05/25 03:09:29;;;;;;;1.80;0.82;;;;;;;18.82;46.15;100805.66;5035000;28;20100;-58
2021/05/25 03:11:55;;;;;;;1.40;0.70;;;;;;;18.86;46.14;100814.19;5035665;28;20481;-58
2021/05/25 03:14:26;;;;;;;2.17;0.80;;;;;;;18.86;45.84;100822.09;5035432;28;20378;-57
2021/05/25 03:16:51;;;;;;;1.50;0.60;;;;;;;18.85;45.86;100816.00;5034460;28;20432;-58
2021/05/25 03:19:16;;;;;;;1.40;0.77;;;;;;;18.85;46.11;100813.38;5034960;28;20033;-58
2021/05/25 03:21:45;;;;;;;2.25;0.80;;;;;;;18.81;45.76;100814.53;5035088;28;20022;-58
2021/05/25 03:24:10;;;;;;;2.75;1.00;;;;;;;18.82;45.88;100816.22;5034274;28;20037;-58
2021/05/25 03:26:38;;;;;;;1.50;0.80;;;;;;;18.84;46.09;100818.78;5035151;28;20051;-58
2021/05/25 03:29:03;;;;;;;1.45;0.60;;;;;;;18.82;45.96;100810.94;5034514;28;20048;-59
2021/05/25 03:31:29;;;;;;;1.42;0.73;;;;;;;18.82;46.11;100812.75;5034245;28;20017;-57
2021/05/25 03:33:54;;;;;;;1.35;0.70;;;;;;;18.81;46.09;100811.06;5034846;28;20026;-60
2021/05/25 03:36:19;;;;;;;1.88;0.80;;;;;;;18.81;46.07;100819.00;5034463;28;20025;-59
2021/05/25 03:38:44;;;;;;;1.50;0.70;;;;;;;18.79;45.91;100816.50;5034246;28;20037;-58
2021/05/25 03:41:12;;;;;;;1.75;0.80;;;;;;;18.80;45.95;100826.09;5034669;28;20313;-58
2021/05/25 03:43:38;;;;;;;1.35;0.73;;;;;;;18.79;45.98;100824.41;5033867;28;20045;-58
2021/05/25 03:46:03;;;;;;;1.47;0.70;;;;;;;18.80;45.73;100827.88;5034410;28;20131;-59
2021/05/25 03:48:28;;;;;;;2.50;0.80;;;;;;;18.79;45.87;100831.50;5034888;28;20329;-59
2021/05/25 03:50:53;;;;;;;1.35;0.77;;;;;;;18.79;45.96;100828.84;5033791;28;20104;-57
2021/05/25 03:53:19;;;;;;;2.30;0.80;;;;;;;18.78;45.71;100827.19;5034611;28;20033;-58
2021/05/25 04:00:56;;;;;;;1.40;0.65;;;;;;;18.76;45.74;100824.66;5035288;28;20076;-58
2021/05/25 04:03:23;;;;;;;1.70;0.70;;;;;;;18.76;45.65;100818.56;5045756;28;20029;-58
2021/05/25 04:05:48;;;;;;;1.63;0.90;;;;;;;18.74;46.05;100821.31;5048522;28;20040;-58
2021/05/25 04:08:16;;;;;;;1.58;0.57;;;;;;;18.75;45.87;100825.63;5048802;28;20029;-59
2021/05/25 04:10:41;;;;;;;1.98;0.80;;;;;;;18.74;45.60;100831.88;5048867;28;20025;-58
2021/05/25 04:13:07;;;;;;;1.85;0.50;;;;;;;18.75;45.73;100833.53;5048336;28;20053;-58
2021/05/25 04:15:34;;;;;;;1.92;0.80;;;;;;;18.75;45.82;100838.00;5049815;28;20124;-60
2021/05/25 04:18:00;;;;;;;1.88;0.68;;;;;;;18.74;45.91;100838.94;5041632;28;20041;-58
2021/05/25 04:20:28;;;;;;;1.92;0.70;;;;;;;18.74;45.32;100838.94;5033961;28;20032;-59
2021/05/25 04:22:56;;;;;;;1.92;0.80;;;;;;;18.72;45.65;100838.25;5034431;28;20021;-58
2021/05/25 04:25:21;;;;;;;2.15;0.73;;;;;;;18.72;45.75;100838.25;5033918;28;20542;-58
2021/05/25 04:27:47;;;;;;;1.90;0.70;;;;;;;18.73;45.81;100851.31;5033586;28;20104;-58
2021/05/25 04:30:13;;;;;;;1.10;0.60;;;;;;;18.73;45.98;100850.50;5033565;28;20042;-57
2021/05/25 04:32:39;;;;;;;1.60;0.68;;;;;;;18.72;45.77;100848.81;5033902;28;20079;-58
2021/05/25 04:35:05;;;;;;;1.65;0.70;;;;;;;18.71;45.93;100855.03;5032906;28;20041;-58
2021/05/25 04:37:31;;;;;;;2.22;0.70;;;;;;;18.71;46.02;100852.41;5033546;28;20032;-58
2021/05/25 04:39:56;;;;;;;1.15;0.55;;;;;;;18.70;46.08;100862.13;5032893;28;20033;-59
2021/05/25 04:42:22;;;;;;;1.73;0.60;;;;;;;18.70;45.87;100856.03;5033220;28;20030;-58
2021/05/25 04:44:49;;;;;;;3.50;0.80;;;;;;;18.68;45.62;100859.63;5032998;28;20045;-60
2021/05/25 04:47:15;;;;;;;1.60;0.70;;;;;;;18.70;45.72;100861.31;5031750;28;20033;-58
2021/05/25 04:49:41;;;;;;;1.52;0.68;;;;;;;18.70;45.56;100859.50;5033325;28;20018;-59
2021/05/25 04:52:07;;;;;;;3.03;0.80;;;;;;;18.68;45.87;100861.44;5033015;28;20112;-59
2021/05/25 04:54:33;;;;;;;1.63;0.70;;;;;;;18.69;45.94;100868.38;5032276;28;20032;-58
2021/05/25 04:56:59;;;;;;;1.77;0.70;;;;;;;18.69;45.70;100863.09;5033051;28;20026;-58
2021/05/25 04:59:24;;;;;;;2.28;0.77;;;;;;;18.67;46.13;100863.25;5032704;28;20188;-58
2021/05/25 05:01:49;;;;;;;1.67;0.60;;;;;;;18.67;45.61;100868.53;5032159;28;20025;-58
2021/05/25 05:04:17;;;;;;;3.28;0.90;;;;;;;18.66;45.63;100866.84;5032707;28;20267;-58
2021/05/25 05:06:42;;;;;;;3.22;0.80;;;;;;;18.68;45.67;100867.53;5032500;28;20457;-58
2021/05/25 05:09:08;;;;;;;3.17;0.70;;;;;;;18.66;45.85;100872.13;5031665;28;20032;-58
2021/05/25 05:11:34;;;;;;;1.70;0.70;;;;;;;18.68;45.64;100872.81;5032474;28;20266;-58
2021/05/25 05:14:02;;;;;;;1.45;0.63;;;;;;;18.68;45.92;100864.06;5032382;28;20037;-58
2021/05/25 05:16:27;;;;;;;1.25;0.65;;;;;;;18.68;45.58;100864.91;5031818;28;20026;-59
2021/05/25 05:18:52;;;;;;;1.95;0.60;;;;;;;18.69;45.62;100873.66;5032247;28;20088;-57
2021/05/25 05:21:20;;;;;;;1.67;0.70;;;;;;;18.68;45.82;100870.19;5032433;28;20021;-58
2021/05/25 05:23:45;;;;;;;1.85;0.70;;;;;;;18.71;45.89;100879.66;5031498;28;20048;-58
2021/05/25 05:26:14;;;;;;;1.93;0.80;;;;;;;18.70;46.15;100883.25;5032136;28;20108;-58
2021/05/25 05:28:42;;;;;;;2.17;0.73;;;;;;;18.76;46.19;100884.56;5032298;28;20358;-58
2021/05/25 05:31:08;;;;;;;2.20;0.90;;;;;;;18.81;46.54;100883.19;5031551;28;20397;-58
2021/05/25 05:33:33;;;;;;;1.27;0.50;;;;;;;18.86;46.49;100893.41;5032276;28;20072;-57
2021/05/25 05:35:58;;;;;;;1.30;0.60;;;;;;;18.90;46.11;100881.63;5032502;28;20060;-58
2021/05/25 05:38:24;;;;;;;1.83;0.60;;;;;;;18.93;45.86;100885.78;5031343;28;20087;-58
2021/05/25 05:40:50;;;;;;;1.52;0.63;;;;;;;18.97;45.87;100895.16;5032228;28;20036;-58
2021/05/25 05:43:17;;;;;;;1.60;0.75;;;;;;;19.01;45.90;100899.22;5031177;28;20026;-58
2021/05/25 05:45:43;;;;;;;1.95;0.60;;;;;;;19.07;45.57;100903.13;5032362;28;20030;-60
2021/05/25 05:48:11;;;;;;;1.73;0.60;;;;;;;19.12;45.83;100906.22;5032055;28;20483;-59
2021/05/25 05:50:36;;;;;;;1.42;0.50;;;;;;;19.16;45.53;100907.66;5031846;28;20270;-58
2021/05/25 05:53:02;;;;;;;1.67;0.60;;;;;;;19.17;45.57;100910.16;5031797;28;20022;-59
2021/05/25 05:55:27;;;;;;;1.95;0.68;;;;;;;19.21;45.45;100905.44;5032147;28;20457;-59
2021/05/25 05:57:55;;;;;;;4.13;0.63;;;;;;;19.25;45.32;100906.88;5031108;28;20022;-58
2021/05/25 06:00:22;;;;;;;1.70;0.70;;;;;;;19.28;45.05;100901.31;5031293;28;20025;-57
2021/05/25 06:02:47;;;;;;;1.95;0.70;;;;;;;19.31;45.36;100898.44;5032087;28;20080;-58
2021/05/25 06:05:12;;;;;;;1.23;0.50;;;;;;;19.40;44.99;100904.72;5030691;28;20029;-59
2021/05/25 06:07:38;;;;;;;1.48;0.50;;;;;;;19.46;45.33;100904.19;5031816;28;20025;-58
2021/05/25 06:10:07;;;;;;;1.45;0.70;;;;;;;19.52;45.10;100902.84;5031479;28;20025;-76
2021/05/25 06:12:33;;;;;;;2.05;0.70;;;;;;;19.57;45.05;100906.75;5030991;28;20036;-59
2021/05/25 06:14:58;;;;;;;1.85;0.70;;;;;;;19.61;44.98;100912.59;5031777;28;20021;-58
2021/05/25 06:17:24;;;;;;;1.17;0.60;;;;;;;19.64;44.90;100899.09;5032013;28;20109;-57
2021/05/25 06:19:49;;;;;;;2.45;0.65;;;;;;;19.68;44.84;100910.28;5030928;28;20112;-59
2021/05/25 06:22:15;;;;;;;0.80;0.50;;;;;;;19.72;44.90;100911.66;5031406;28;20021;-58
2021/05/25 06:24:40;;;;;;;1.65;0.70;;;;;;;19.76;45.19;100915.75;5031653;28;20381;-58
2021/05/25 06:27:06;;;;;;;1.55;0.63;;;;;;;19.79;45.20;100927.88;5030573;28;20021;-58
2021/05/25 06:29:31;;;;;;;2.80;0.70;;;;;;;19.79;44.97;100923.44;5031372;28;20148;-59
2021/05/25 06:32:00;;;;;;;1.10;0.60;;;;;;;19.82;45.02;100925.81;5031781;28;20025;-59
2021/05/25 06:34:27;;;;;;;1.75;0.68;;;;;;;19.84;45.17;100931.78;5030954;28;20437;-59
2021/05/25 06:36:52;;;;;;;2.38;0.90;;;;;;;19.86;45.23;100931.66;5033736;28;20471;-60
2021/05/25 06:39:18;;;;;;;1.58;0.60;;;;;;;19.86;45.10;100939.59;5035372;28;20144;-60
2021/05/25 06:41:46;;;;;;;1.52;0.60;;;;;;;19.86;45.30;100932.47;5034798;28;20033;-59
2021/05/25 06:44:11;;;;;;;2.00;0.60;;;;;;;19.86;45.50;100947.53;5035381;28;20469;-58
2021/05/25 06:46:36;;;;;;;3.25;1.00;;;;;;;19.85;45.43;100943.19;5035092;28;20017;-59
2021/05/25 06:49:02;;;;;;;1.50;0.52;;;;;;;19.82;45.76;100943.47;5035409;28;20029;-59
2021/05/25 06:51:28;;;;;;;1.95;0.68;;;;;;;19.82;45.83;100949.63;5035588;28;20031;-59
2021/05/25 06:53:53;;;;;;;1.77;0.60;;;;;;;19.82;45.90;100964.63;5034824;28;20056;-59
2021/05/25 06:56:19;;;;;;;1.20;0.60;;;;;;;19.80;45.78;100962.09;5035035;28;20025;-60
2021/05/25 06:58:44;;;;;;;1.63;0.68;;;;;;;19.81;46.03;100968.25;5036536;28;20025;-59
2021/05/25 07:01:09;;;;;;;1.38;0.68;;;;;;;19.82;45.89;100969.91;5035227;28;20137;-60
2021/05/25 07:03:35;;;;;;;1.83;0.80;;;;;;;19.79;46.00;100973.69;5035604;28;20117;-61
2021/05/25 07:06:00;;;;;;;1.38;0.60;;;;;;;19.77;45.45;100982.69;5035667;28;20271;-57
2021/05/25 07:08:25;;;;;;;2.72;0.70;;;;;;;19.72;46.04;100980.41;5034468;28;20358;-59
2021/05/25 07:10:50;;;;;;;1.35;0.75;;;;;;;19.68;45.64;100985.13;5034809;28;20156;-59
2021/05/25 07:13:16;;;;;;;1.25;0.60;;;;;;;19.64;45.85;100986.34;5035807;28;20036;-58
2021/05/25 07:15:47;;;;;;;2.05;0.60;;;;;;;19.60;45.75;100997.31;5034745;28;20034;-61
2021/05/25 07:18:16;;;;;;;1.83;0.68;;;;;;;19.57;45.57;101001.91;5035478;28;20028;-60
2021/05/25 07:20:43;;;;;;;1.85;0.70;;;;;;;19.56;46.10;100996.75;5035691;28;20049;-59
2021/05/25 07:23:11;;;;;;;1.98;0.60;;;;;;;19.56;46.31;101000.22;5034352;28;20036;-60
2021/05/25 07:25:37;;;;;;;2.08;0.70;;;;;;;19.57;46.08;101001.09;5035197;28;20022;-60
2021/05/25 07:28:03;;;;;;;1.95;0.70;;;;;;;19.55;46.39;101001.22;5035377;28;20030;-60
2021/05/25 07:30:28;;;;;;;1.75;0.80;;;;;;;19.59;46.58;101004.44;5034541;28;20041;-60
2021/05/25 07:32:53;;;;;;;2.10;0.80;;;;;;;19.58;46.43;101006.25;5035971;28;20113;-61
2021/05/25 07:35:19;;;;;;;3.00;0.70;;;;;;;19.57;46.36;101009.00;5034921;28;20021;-59
2021/05/25 07:37:44;;;;;;;1.48;0.60;;;;;;;19.58;46.36;101006.25;5033966;28;20080;-61
2021/05/25 07:40:11;;;;;;;2.30;0.60;;;;;;;19.56;46.29;101008.16;5034864;28;20075;-60
2021/05/25 07:42:36;;;;;;;2.03;0.60;;;;;;;19.54;46.40;101010.09;5034813;28;20109;-59
2021/05/25 07:45:03;;;;;;;2.17;0.60;;;;;;;19.53;46.34;101016.34;5033628;28;20056;-59
2021/05/25 07:47:29;;;;;;;1.45;0.60;;;;;;;19.52;46.48;101017.31;5034102;28;20483;-59
2021/05/25 07:49:55;;;;;;;2.58;0.73;;;;;;;19.48;46.39;101015.06;5033724;28;20032;-59
2021/05/25 07:52:21;;;;;;;2.35;0.70;;;;;;;19.46;46.67;101031.06;5034386;28;20369;-60
2021/05/25 07:54:46;;;;;;;1.55;0.60;;;;;;;19.45;46.68;101029.38;5034249;28;20029;-59
2021/05/25 07:57:12;;;;;;;3.53;0.90;;;;;;;19.44;46.79;101027.72;5033517;28;20021;-60
2021/05/25 07:59:37;;;;;;;1.10;0.60;;;;;;;19.42;46.68;101047.31;5035055;28;20053;-60
2021/05/25 08:02:03;;;;;;;1.35;0.60;;;;;;;19.39;46.97;101041.31;5034119;28;20465;-59
2021/05/25 08:04:29;;;;;;;1.92;0.50;;;;;;;19.36;46.55;101040.75;5033625;28;20021;-58
2021/05/25 08:06:54;;;;;;;2.22;0.60;;;;;;;19.36;46.56;101053.94;5034311;28;20449;-59
2021/05/25 08:09:19;;;;;;;1.27;0.60;;;;;;;19.34;46.93;101058.50;5033849;28;20037;-59
2021/05/25 08:11:44;;;;;;;1.57;0.80;;;;;;;19.32;46.85;101060.44;5033486;28;20021;-59
2021/05/25 08:14:10;;;;;;;1.20;0.50;;;;;;;19.32;46.86;101063.09;5033971;28;20282;-60
2021/05/25 08:16:38;;;;;;;1.10;0.50;;;;;;;19.30;46.84;101067.66;5034237;28;20026;-60
2021/05/25 08:19:11;;;;;;;3.67;0.68;;;;;;;19.28;46.91;101074.88;5032861;28;20436;-59
2021/05/25 08:21:38;;;;;;;1.40;0.60;;;;;;;19.27;47.04;101074.03;5033791;28;20104;-60
2021/05/25 08:24:07;;;;;;;1.70;0.50;;;;;;;19.26;47.13;101077.63;5033625;28;20026;-60
2021/05/25 08:26:34;;;;;;;2.42;0.70;;;;;;;19.26;47.13;101077.63;5032896;28;20105;-59
2021/05/25 08:28:59;;;;;;;2.72;0.70;;;;;;;19.24;46.92;101069.00;5033512;28;20186;-59
2021/05/25 08:31:24;;;;;;;2.28;0.70;;;;;;;19.26;46.90;101082.09;5033333;28;20064;-59
2021/05/25 08:33:50;;;;;;;2.60;0.60;;;;;;;19.25;46.86;101078.63;5032536;28;20057;-60
2021/05/25 08:36:18;;;;;;;1.15;0.50;;;;;;;19.27;47.05;101086.41;5033207;28;20270;-59
2021/05/25 08:38:44;;;;;;;2.20;0.80;;;;;;;19.26;47.31;101095.31;5033652;28;20105;-58
2021/05/25 08:41:10;;;;;;;1.90;0.70;;;;;;;19.26;47.28;101095.31;5032555;28;20050;-59
2021/05/25 08:43:35;;;;;;;1.45;0.52;;;;;;;19.30;47.01;101096.75;5033783;28;20018;-59
2021/05/25 08:46:00;;;;;;;1.90;0.63;;;;;;;19.34;47.20;101095.50;5033641;28;20048;-59
2021/05/25 08:48:26;;;;;;;2.00;0.60;;;;;;;19.37;46.86;101101.38;5032377;28;20063;-59
2021/05/25 08:51:01;;;;;;;1.52;0.60;;;;;;;19.38;47.20;101094.28;5031934;28;20045;-59
2021/05/25 08:53:29;;;;;;;2.90;0.90;;;;;;;19.37;47.32;101098.72;5032827;28;20033;-60
2021/05/25 08:55:54;;;;;;;2.38;0.70;;;;;;;19.37;47.31;101098.72;5033542;28;20047;-59
2021/05/25 08:58:22;;;;;;;0.90;0.60;;;;;;;19.38;47.58;101103.06;5032473;28;20473;-60
2021/05/25 09:00:49;;;;;;;1.75;0.70;;;;;;;19.40;47.33;101102.94;5032193;28;20028;-59
2021/05/25 09:03:19;;;;;;;2.03;0.60;;;;;;;19.37;47.26;101105.81;5032652;28;20025;-58
2021/05/25 09:05:59;;;;;;;1.98;0.68;;;;;;;19.39;47.41;101096.81;5033203;28;20029;-60
2021/05/25 09:08:34;;;;;;;2.42;0.82;;;;;;;19.39;47.39;101101.25;5031799;28;20060;-58
2021/05/25 09:11:07;;;;;;;2.10;0.73;;;;;;;19.39;47.63;101114.44;5032593;28;20041;-58
2021/05/25 09:13:32;;;;;;;3.35;0.90;;;;;;;19.36;47.42;101110.28;5032706;28;20026;-59
2021/05/25 09:15:58;;;;;;;2.17;0.70;;;;;;;19.30;47.73;101110.78;5031918;28;20039;-57
2021/05/25 09:18:29;;;;;;;1.70;0.60;;;;;;;19.31;47.24;101119.53;5032504;28;20030;-60
2021/05/25 09:20:58;;;;;;;1.52;0.60;;;;;;;19.30;47.56;101118.72;5032928;28;20033;-59
2021/05/25 09:23:44;;;;;;;2.72;0.70;;;;;;;19.28;47.39;101112.72;5032141;28;20033;-59
2021/05/25 09:26:17;;;;;;;2.13;0.63;;;;;;;19.25;47.65;101117.38;5032599;28;20025;-59
2021/05/25 09:29:04;;;;;;;2.95;0.90;;;;;;;19.24;47.63;101135.06;5031793;28;20049;-60
2021/05/25 09:31:35;;;;;;;1.80;0.70;;;;;;;19.21;47.79;101122.91;5032345;28;20036;-59
2021/05/25 09:34:23;;;;;;;2.15;0.60;;;;;;;19.20;47.86;101128.31;5032645;28;20104;-59
2021/05/25 09:37:05;;;;;;;2.53;0.80;;;;;;;19.20;48.10;101133.63;5031912;28;20105;-59
2021/05/25 09:39:50;;;;;;;2.03;0.90;;;;;;;19.20;47.87;101144.19;5032680;28;20465;-61
2021/05/25 09:42:19;;;;;;;1.30;0.60;;;;;;;19.18;47.87;101144.34;5032989;28;20085;-60
2021/05/25 09:45:04;;;;;;;2.20;0.73;;;;;;;19.18;47.93;101149.63;5032266;28;20032;-60
2021/05/25 09:47:53;;;;;;;3.92;0.70;;;;;;;19.19;47.90;101150.44;5032516;28;20021;-60
2021/05/25 09:50:21;;;;;;;2.88;0.80;;;;;;;19.20;47.90;101147.69;5031335;28;20029;-60
2021/05/25 09:53:20;;;;;;;2.00;0.70;;;;;;;19.21;47.98;101151.97;5032165;28;20032;-59
2021/05/25 09:55:49;;;;;;;2.22;0.68;;;;;;;19.20;47.84;101138.91;5032313;28;20117;-60
2021/05/25 09:58:15;;;;;;;1.93;0.60;;;;;;;19.24;48.05;101150.91;5031179;28;20052;-60
2021/05/25 10:00:43;;;;;;;5.28;0.90;;;;;;;19.26;47.96;101154.25;5032195;28;20066;-60
2021/05/25 10:03:24;;;;;;;1.83;0.70;;;;;;;19.28;48.06;101151.50;5031726;28;20445;-60
2021/05/25 10:05:50;;;;;;;2.50;0.80;;;;;;;19.30;48.31;101139.00;5031333;28;20033;-60
2021/05/25 10:08:18;;;;;;;2.25;0.82;;;;;;;19.34;48.36;101145.72;5031489;28;20040;-60
2021/05/25 10:10:44;;;;;;;2.45;0.80;;;;;;;19.35;48.02;101147.41;5030953;28;20025;-60
2021/05/25 10:13:11;;;;;;;2.70;0.68;;;;;;;19.35;48.02;101134.19;5031741;28;20128;-60
2021/05/25 10:15:42;;;;;;;2.00;1.00;;;;;;;19.35;48.52;101145.59;5031920;28;20034;-60
2021/05/25 10:18:12;;;;;;;1.60;0.73;;;;;;;19.37;48.20;101146.28;5030765;28;20393;-59
2021/05/25 10:20:38;;;;;;;2.47;0.95;;;;;;;19.37;48.20;101148.09;5031474;28;20362;-57
2021/05/25 10:23:03;;;;;;;2.17;0.90;;;;;;;19.38;48.57;101139.22;5031894;28;20036;-59
2021/05/25 10:25:32;;;;;;;1.67;0.68;;;;;;;19.44;48.52;101148.44;5031420;28;20079;-59
2021/05/25 10:27:58;;;;;;;1.92;0.90;;;;;;;19.47;48.48;101142.91;5031868;28;20098;-59
2021/05/25 10:30:24;;;;;;;2.35;0.73;;;;;;;19.46;48.78;101144.72;5031398;28;20046;-65
2021/05/25 10:32:51;;;;;;;2.85;0.70;;;;;;;19.44;48.86;101144.00;5030751;28;20511;-59
2021/05/25 10:35:20;;;;;;;2.40;0.82;;;;;;;19.43;48.95;101142.31;5031320;28;20461;-59
2021/05/25 10:38:14;;;;;;;2.92;0.90;;;;;;;19.43;48.94;101144.97;5031609;28;20124;-59
2021/05/25 10:40:41;;;;;;;1.92;0.70;;;;;;;19.42;48.92;101145.09;5017440;28;20041;-59
2021/05/25 10:43:34;;;;;;;3.10;1.00;;;;;;;19.40;49.10;101140.75;5031365;28;20468;-58
2021/05/25 10:46:11;;;;;;;2.95;0.80;;;;;;;19.42;48.97;101145.09;5031129;28;20045;-58
2021/05/25 10:48:56;;;;;;;1.58;0.80;;;;;;;19.40;48.74;101156.63;5031802;28;20025;-58
2021/05/25 10:51:21;;;;;;;2.20;0.80;;;;;;;19.39;48.79;101170.81;5031574;28;20034;-59
2021/05/25 10:54:22;;;;;;;2.00;0.70;;;;;;;19.42;48.83;101190.03;5030604;28;20148;-59
2021/05/25 10:56:48;;;;;;;4.00;1.13;;;;;;;19.39;49.20;101186.66;5031915;28;20033;-59
2021/05/25 10:59:14;;;;;;;1.63;0.65;;;;;;;19.36;48.96;101186.91;5031270;28;20025;-59
2021/05/25 11:01:40;;;;;;;2.50;0.70;;;;;;;19.36;48.96;101188.72;5030870;28;20112;-59
2021/05/25 11:04:10;;;;;;;1.80;0.63;;;;;;;19.36;49.18;101199.31;5031256;28;20026;-59
2021/05/25 11:06:36;;;;;;;2.08;0.60;;;;;;;19.37;48.93;101187.75;5032060;28;20064;-60
2021/05/25 11:09:22;;;;;;;1.92;0.77;;;;;;;19.36;48.65;101196.66;5031195;28;20045;-59
2021/05/25 11:12:09;;;;;;;2.70;0.82;;;;;;;19.36;48.50;101194.03;5031706;28;20025;-60
2021/05/25 11:14:35;;;;;;;1.45;0.57;;;;;;;19.37;48.46;101193.03;5030675;28;20044;-59
2021/05/25 11:17:29;;;;;;;2.45;0.70;;;;;;;19.39;48.32;101197.25;5031616;28;20034;-60
2021/05/25 11:20:09;;;;;;;1.92;0.68;;;;;;;19.40;48.48;101195.44;5031548;28;20037;-60
2021/05/25 11:22:39;;;;;;;1.80;0.60;;;;;;;19.40;48.47;101198.06;5032012;28;20052;-60
2021/05/25 11:25:06;;;;;;;1.83;0.63;;;;;;;19.45;48.36;101187.97;5034703;28;20466;-64
2021/05/25 11:27:55;;;;;;;1.75;0.73;;;;;;;19.49;48.64;101199.16;5035237;28;20053;-58
2021/05/25 11:30:30;;;;;;;3.17;0.60;;;;;;;19.50;48.40;101191.09;5034504;28;20132;-58
2021/05/25 11:32:56;;;;;;;2.25;0.70;;;;;;;19.52;48.57;101197.09;5034939;28;20056;-58